< < Back
Terminal Aerodrome Forecast


Current Version              Previous Versions:   1  2  3  4  5  6  7  8  9  

Terminal Aerodrome Forecast

936
FTUS42 KILM 301120
TAFFLO
TAF
KFLO 301120Z 3012/3112 24004KT P6SM FEW080 SCT150
     FM301400 25008KT P6SM FEW050
     FM301800 22011KT P6SM VCTS SCT050CB
     FM310000 19005KT P6SM FEW050 SCT250=

Latest METAR

651
SAUS70 KWBC 301300 RRK
MTRFLO
METAR KFLO 301253Z 21004KT 10SM CLR 28/24 A3000 RMK AO2 SLP155
T02830239


USA.gov is the U.S. government's official web portal to all federal, state and local government web resources and services.